Terminal Aerodrome Forecast
Issued by NWS

Home | Current Version | Previous Version | Text Only | Print | Product List | Glossary On
Versions: 1 2 3 4 5 6 7 8 9 10 11 12 13 14 15 16 17 18 19 20 21 22
071
FTUS41 KPHI 260312 AAB
TAFPNE
TAF AMD
KPNE 260312Z 2603/2624 34008KT P6SM SCT015 BKN080
      TEMPO 2603/2606 -SHRA OVC015
     FM260600 VRB03KT 5SM BR OVC015
     FM261100 28008KT 6SM BR SCT008 OVC015
     FM261300 29012KT P6SM SCT015 BKN050
     FM261700 30015G23KT P6SM BKN050=

USA.gov is the U.S. government's official web portal to all federal, state and local government web resources and services.